Terminal Aerodrome Forecast
Issued by NWS Albany, NY

Home | Current Version | Previous Version | Text Only | Print | Product List | Glossary On
Versions: 1 2 3 4 5 6 7 8 9 10 11 12 13
570
FTUS41 KALY 232320
TAFGFL
TAF
KGFL 232320Z 2400/2424 VRB03KT P6SM SKC
     FM241600 19007KT P6SM BKN250
     FM242200 18009KT P6SM BKN120 OVC200=

USA.gov is the U.S. government's official web portal to all federal, state and local government web resources and services.